createdAt,value
2023-04-25T00:00:21.517Z,96401.00
2023-04-25T00:02:48.926Z,96401.00
2023-04-25T00:05:17.345Z,96391.00
2023-04-25T00:07:44.664Z,96387.00
2023-04-25T00:10:12.757Z,96382.00
2023-04-25T00:12:41.319Z,96393.00
2023-04-25T00:15:08.757Z,96391.00
2023-04-25T00:17:36.473Z,96393.00
2023-04-25T00:20:06.050Z,96382.00
2023-04-25T00:22:35.266Z,96379.00
2023-04-25T00:25:02.654Z,96382.00
2023-04-25T00:27:29.957Z,96378.00
2023-04-25T00:29:57.120Z,96386.00
2023-04-25T00:32:24.349Z,96385.00
2023-04-25T00:34:51.540Z,96389.00
2023-04-25T00:37:19.297Z,96390.00
2023-04-25T00:39:46.496Z,96391.00
2023-04-25T00:42:13.730Z,96390.00
2023-04-25T00:44:41.350Z,96392.00
2023-04-25T00:47:08.730Z,96397.00
2023-04-25T00:49:35.941Z,96394.00
2023-04-25T00:52:03.170Z,96395.00
2023-04-25T00:54:31.668Z,96392.00
2023-04-25T00:56:58.884Z,96394.00
2023-04-25T00:59:28.200Z,96389.00
2023-04-25T01:01:55.966Z,96392.00
2023-04-25T01:04:23.616Z,96386.00
2023-04-25T01:06:51.346Z,96387.00
2023-04-25T01:09:18.512Z,96393.00
2023-04-25T01:11:45.697Z,96385.00
2023-04-25T01:14:12.885Z,96380.00
2023-04-25T01:16:40.129Z,96389.00
2023-04-25T01:19:13.845Z,96379.00
2023-04-25T01:21:41.371Z,96375.00
2023-04-25T01:24:08.904Z,96380.00
2023-04-25T01:26:36.765Z,96381.00
2023-04-25T01:29:05.796Z,96369.00
2023-04-25T01:31:34.091Z,96369.00
2023-04-25T01:34:01.714Z,96375.00
2023-04-25T01:36:29.315Z,96376.00
2023-04-25T01:38:56.529Z,96366.00
2023-04-25T01:41:24.405Z,96365.00
2023-04-25T01:43:52.065Z,96356.00
2023-04-25T01:46:19.513Z,96354.00
2023-04-25T01:48:47.114Z,96355.00
2023-04-25T01:51:14.446Z,96358.00
2023-04-25T01:53:41.920Z,96352.00
2023-04-25T01:56:09.151Z,96350.00
2023-04-25T01:58:36.324Z,96347.00
2023-04-25T02:01:03.733Z,96347.00
2023-04-25T02:03:32.560Z,96348.00
2023-04-25T02:05:59.921Z,96346.00
2023-04-25T02:08:27.865Z,96338.00
2023-04-25T02:10:55.049Z,96342.00
2023-04-25T02:13:22.218Z,96345.00
2023-04-25T02:15:49.443Z,96340.00
2023-04-25T02:18:19.553Z,96348.00
2023-04-25T02:20:47.092Z,96351.00
2023-04-25T02:23:16.279Z,96344.00
2023-04-25T02:25:43.576Z,96352.00
2023-04-25T02:28:11.285Z,96345.00
2023-04-25T02:30:38.761Z,96338.00
2023-04-25T02:33:06.122Z,96340.00
2023-04-25T02:35:33.406Z,96340.00
2023-04-25T02:38:00.613Z,96327.00
2023-04-25T02:40:27.901Z,96327.00
2023-04-25T02:42:55.063Z,96327.00
2023-04-25T02:45:22.343Z,96327.00
2023-04-25T02:47:49.550Z,96331.00
2023-04-25T02:50:16.874Z,96328.00
2023-04-25T02:52:44.089Z,96333.00
2023-04-25T02:55:11.844Z,96327.00
2023-04-25T02:57:39.027Z,96323.00
2023-04-25T03:00:06.953Z,96321.00
2023-04-25T03:02:34.150Z,96320.00
2023-04-25T03:05:01.350Z,96322.00
2023-04-25T03:07:28.532Z,96316.00
2023-04-25T03:09:56.584Z,96314.00
2023-04-25T03:12:23.767Z,96307.00
2023-04-25T03:14:51.039Z,96313.00
2023-04-25T03:17:18.264Z,96307.00
2023-04-25T03:19:45.430Z,96313.00
2023-04-25T03:22:12.657Z,96307.00
2023-04-25T03:24:39.941Z,96308.00
2023-04-25T03:27:07.134Z,96286.00
2023-04-25T03:29:34.312Z,96294.00
2023-04-25T03:32:01.664Z,96289.00
2023-04-25T03:34:29.004Z,96286.00
2023-04-25T03:36:56.378Z,96288.00
2023-04-25T03:39:23.554Z,96278.00
2023-04-25T03:41:50.851Z,96278.00
2023-04-25T03:44:18.036Z,96273.00
2023-04-25T03:46:45.266Z,96274.00
2023-04-25T03:49:12.454Z,96267.00
2023-04-25T03:51:39.658Z,96259.00
2023-04-25T03:54:06.913Z,96263.00
2023-04-25T03:56:34.071Z,96255.00
2023-04-25T03:59:01.410Z,96249.00
2023-04-25T04:01:28.639Z,96255.00
2023-04-25T04:03:56.286Z,96250.00
2023-04-25T04:06:23.902Z,96251.00
2023-04-25T04:08:51.123Z,96250.00
2023-04-25T04:11:18.326Z,96248.00
2023-04-25T04:13:45.530Z,96245.00
2023-04-25T04:16:12.772Z,96246.00
2023-04-25T04:18:40.081Z,96243.00
2023-04-25T04:21:07.262Z,96248.00
2023-04-25T04:23:34.658Z,96248.00
2023-04-25T04:26:02.096Z,96251.00
2023-04-25T04:28:29.310Z,96256.00
2023-04-25T04:30:56.597Z,96249.00
2023-04-25T04:33:24.640Z,96255.00
2023-04-25T04:35:53.287Z,96249.00
2023-04-25T04:38:20.757Z,96247.00
2023-04-25T04:40:48.686Z,96258.00
2023-04-25T04:43:18.050Z,96253.00
2023-04-25T04:45:45.627Z,96254.00
2023-04-25T04:48:15.058Z,96258.00
2023-04-25T04:50:45.904Z,96262.00
2023-04-25T04:53:13.533Z,96254.00
2023-04-25T04:55:42.142Z,96262.00
2023-04-25T04:58:09.701Z,96270.00
2023-04-25T05:00:36.925Z,96269.00
2023-04-25T05:03:04.534Z,96263.00
2023-04-25T05:05:31.906Z,96259.00
2023-04-25T05:07:59.133Z,96257.00
2023-04-25T05:10:26.495Z,96254.00
2023-04-25T05:12:53.760Z,96262.00
2023-04-25T05:15:20.962Z,96258.00
2023-04-25T05:17:48.217Z,96255.00
2023-04-25T05:20:16.158Z,96257.00
2023-04-25T05:22:43.584Z,96256.00
2023-04-25T05:25:11.229Z,96268.00
2023-04-25T05:27:38.489Z,96257.00
2023-04-25T05:30:06.629Z,96258.00
2023-04-25T05:32:33.865Z,96254.00
2023-04-25T05:35:01.615Z,96257.00
2023-04-25T05:37:28.963Z,96262.00
2023-04-25T05:39:56.164Z,96272.00
2023-04-25T05:42:23.534Z,96271.00
2023-04-25T05:44:50.730Z,96274.00
2023-04-25T05:47:17.969Z,96276.00
2023-04-25T05:49:45.151Z,96290.00
2023-04-25T05:52:12.302Z,96290.00
2023-04-25T05:54:39.481Z,96288.00
2023-04-25T05:57:07.109Z,96297.00
2023-04-25T05:59:34.369Z,96302.00
2023-04-25T06:02:01.849Z,96301.00
2023-04-25T06:04:29.404Z,96303.00
2023-04-25T06:06:56.884Z,96317.00
2023-04-25T06:09:24.061Z,96322.00
2023-04-25T06:11:51.245Z,96334.00
2023-04-25T06:14:18.710Z,96326.00
2023-04-25T06:16:45.890Z,96329.00
2023-04-25T06:19:13.069Z,96334.00
2023-04-25T06:21:40.246Z,96338.00
2023-04-25T06:24:07.518Z,96338.00
2023-04-25T06:26:34.826Z,96350.00
2023-04-25T06:29:02.011Z,96359.00
2023-04-25T06:31:30.114Z,96364.00
2023-04-25T06:33:57.371Z,96374.00
2023-04-25T06:36:26.095Z,96376.00
2023-04-25T06:38:53.702Z,96375.00
2023-04-25T06:41:21.294Z,96392.00
2023-04-25T06:43:48.731Z,96380.00
2023-04-25T06:46:16.001Z,96389.00
2023-04-25T06:48:43.297Z,96382.00
2023-04-25T06:51:10.565Z,96382.00
2023-04-25T06:53:37.761Z,96383.00
2023-04-25T06:56:05.471Z,96382.00
2023-04-25T06:58:32.722Z,96385.00
2023-04-25T07:01:00.037Z,96387.00
2023-04-25T07:03:27.448Z,96392.00
2023-04-25T07:05:54.669Z,96396.00
2023-04-25T07:08:22.363Z,96396.00
2023-04-25T07:10:50.094Z,96406.00
2023-04-25T07:13:17.426Z,96405.00
2023-04-25T07:15:45.621Z,96398.00
2023-04-25T07:18:13.004Z,96407.00
2023-04-25T07:20:40.507Z,96406.00
2023-04-25T07:23:07.681Z,96403.00
2023-04-25T07:25:34.876Z,96407.00
2023-04-25T07:28:02.098Z,96412.00
2023-04-25T07:30:29.261Z,96410.00
2023-04-25T07:32:56.879Z,96423.00
2023-04-25T07:35:24.329Z,96423.00
2023-04-25T07:37:52.078Z,96424.00
2023-04-25T07:40:19.355Z,96422.00
2023-04-25T07:42:46.608Z,96424.00
2023-04-25T07:45:13.831Z,96426.00
2023-04-25T07:47:41.101Z,96433.00
2023-04-25T07:50:08.861Z,96435.00
2023-04-25T07:52:36.233Z,96444.00
2023-04-25T07:55:04.190Z,96445.00
2023-04-25T07:57:31.805Z,96451.00
2023-04-25T07:59:59.063Z,96455.00
2023-04-25T08:02:29.301Z,96461.00
2023-04-25T08:04:56.805Z,96463.00
2023-04-25T08:07:24.099Z,96467.00
2023-04-25T08:09:51.279Z,96476.00
2023-04-25T08:12:18.474Z,96483.00
2023-04-25T08:14:45.701Z,96480.00
2023-04-25T08:17:12.908Z,96490.00
2023-04-25T08:19:40.359Z,96489.00
2023-04-25T08:22:07.577Z,96494.00
2023-04-25T08:24:35.693Z,96492.00
2023-04-25T08:27:04.381Z,96501.00
2023-04-25T08:29:31.769Z,96505.00
2023-04-25T08:31:59.006Z,96500.00
2023-04-25T08:34:26.855Z,96511.00
2023-04-25T08:36:54.580Z,96514.00
2023-04-25T08:39:21.948Z,96522.00
2023-04-25T08:41:49.385Z,96523.00
2023-04-25T08:44:16.638Z,96533.00
2023-04-25T08:46:44.254Z,96530.00
2023-04-25T08:49:13.901Z,96535.00
2023-04-25T08:51:47.835Z,96538.00
2023-04-25T08:54:30.735Z,96540.00
2023-04-25T08:57:05.243Z,96544.00
2023-04-25T08:59:33.353Z,96548.00
2023-04-25T09:02:00.566Z,96551.00
2023-04-25T09:04:27.788Z,96556.00
2023-04-25T09:06:54.985Z,96562.00
2023-04-25T09:09:22.394Z,96566.00
2023-04-25T09:11:49.714Z,96574.00
2023-04-25T09:14:18.562Z,96577.00
2023-04-25T09:16:58.049Z,96577.00
2023-04-25T09:19:38.690Z,96581.00
2023-04-25T09:22:06.936Z,96578.00
2023-04-25T09:24:34.892Z,96577.00
2023-04-25T09:27:08.961Z,96580.00
2023-04-25T09:29:39.196Z,96581.00
2023-04-25T09:32:15.668Z,96587.00
2023-04-25T09:35:04.078Z,96583.00
2023-04-25T09:37:31.850Z,96585.00
2023-04-25T09:40:03.558Z,96590.00
2023-04-25T09:42:32.907Z,96598.00
2023-04-25T09:45:02.810Z,96601.00
2023-04-25T09:47:30.123Z,96595.00
2023-04-25T09:49:57.369Z,96600.00
2023-04-25T09:52:26.448Z,96612.00
2023-04-25T09:54:54.040Z,96618.00
2023-04-25T09:57:21.968Z,96614.00
2023-04-25T09:59:50.947Z,96619.00
2023-04-25T10:02:21.243Z,96617.00
2023-04-25T10:04:55.611Z,96614.00
2023-04-25T10:07:29.271Z,96620.00
2023-04-25T10:10:17.046Z,96622.00
2023-04-25T10:13:15.714Z,96622.00
2023-04-25T10:16:18.526Z,96624.00
2023-04-25T10:19:17.764Z,96637.00
2023-04-25T10:22:23.027Z,96637.00
2023-04-25T10:25:19.689Z,96632.00
2023-04-25T10:28:19.396Z,96632.00
2023-04-25T10:31:37.446Z,96622.00
2023-04-25T10:34:04.740Z,96621.00
2023-04-25T10:36:35.813Z,96618.00
2023-04-25T10:39:12.977Z,96609.00
2023-04-25T10:42:03.769Z,96608.00
2023-04-25T10:45:02.429Z,96605.00
2023-04-25T10:48:01.911Z,96612.00
2023-04-25T10:55:01.805Z,96616.00
2023-04-25T10:58:01.951Z,96621.00
2023-04-25T11:01:02.278Z,96614.00
2023-04-25T11:04:03.537Z,96624.00
2023-04-25T11:07:06.592Z,96615.00
2023-04-25T11:09:35.741Z,96616.00
2023-04-25T11:12:03.076Z,96616.00
2023-04-25T11:14:30.333Z,96610.00
2023-04-25T11:17:00.382Z,96606.00
2023-04-25T11:19:29.047Z,96603.00
2023-04-25T11:22:01.036Z,96597.00
2023-04-25T11:24:32.561Z,96595.00
2023-04-25T11:27:00.778Z,96587.00
2023-04-25T11:29:32.091Z,96583.00
2023-04-25T11:32:00.929Z,96592.00
2023-04-25T11:34:31.551Z,96595.00
2023-04-25T11:36:59.487Z,96599.00
2023-04-25T11:39:27.189Z,96602.00
2023-04-25T11:41:54.945Z,96599.00
2023-04-25T11:44:22.829Z,96599.00
2023-04-25T11:46:50.700Z,96600.00
2023-04-25T11:49:20.589Z,96604.00
2023-04-25T11:51:49.397Z,96596.00
2023-04-25T11:54:16.879Z,96601.00
2023-04-25T11:56:47.623Z,96599.00
2023-04-25T11:59:15.147Z,96591.00
2023-04-25T12:01:48.797Z,96593.00
2023-04-25T12:04:34.327Z,96592.00
2023-04-25T12:07:03.288Z,96590.00
2023-04-25T12:09:34.894Z,96587.00
2023-04-25T12:12:03.979Z,96587.00
2023-04-25T12:14:34.247Z,96591.00
2023-04-25T12:17:03.472Z,96603.00
2023-04-25T12:19:35.138Z,96617.00
2023-04-25T12:22:04.379Z,96602.00
2023-04-25T12:24:38.354Z,96616.00
2023-04-25T12:27:09.089Z,96635.00
2023-04-25T12:32:07.067Z,96649.00
2023-04-25T12:34:36.637Z,96652.00
2023-04-25T12:37:03.839Z,96653.00
2023-04-25T12:39:31.152Z,96660.00
2023-04-25T12:41:58.471Z,96677.00
2023-04-25T12:44:25.950Z,96659.00
2023-04-25T12:46:53.257Z,96663.00
2023-04-25T12:49:20.537Z,96664.00
2023-04-25T12:51:47.832Z,96658.00
2023-04-25T12:54:15.399Z,96662.00
2023-04-25T12:56:43.161Z,96669.00
2023-04-25T12:59:10.512Z,96667.00
2023-04-25T13:01:38.287Z,96677.00
2023-04-25T13:04:06.014Z,96682.00
2023-04-25T13:06:33.303Z,96682.00
2023-04-25T13:09:00.552Z,96692.00
2023-04-25T13:11:27.779Z,96684.00
2023-04-25T13:13:55.067Z,96686.00
2023-04-25T13:16:22.519Z,96682.00
2023-04-25T13:18:49.973Z,96677.00
2023-04-25T13:21:17.242Z,96663.00
2023-04-25T13:23:45.712Z,96671.00
2023-04-25T13:26:12.952Z,96664.00
2023-04-25T13:28:42.910Z,96658.00
2023-04-25T13:31:12.040Z,96661.00
2023-04-25T13:33:39.292Z,96661.00
2023-04-25T13:36:06.857Z,96657.00
2023-04-25T13:38:34.086Z,96654.00
2023-04-25T13:41:01.910Z,96643.00
2023-04-25T13:43:29.240Z,96643.00
2023-04-25T13:45:56.494Z,96643.00
2023-04-25T13:48:24.910Z,96647.00
2023-04-25T13:50:52.350Z,96650.00
2023-04-25T13:53:19.628Z,96648.00
2023-04-25T13:55:47.038Z,96644.00
2023-04-25T13:58:14.258Z,96649.00
2023-04-25T14:00:44.309Z,96649.00
2023-04-25T14:03:11.821Z,96653.00
2023-04-25T14:05:39.864Z,96659.00
2023-04-25T14:08:10.919Z,96657.00
2023-04-25T14:10:38.246Z,96673.00
2023-04-25T14:13:06.700Z,96683.00
2023-04-25T14:15:35.547Z,96688.00
2023-04-25T14:18:03.067Z,96691.00
2023-04-25T14:20:30.689Z,96696.00
2023-04-25T14:22:59.303Z,96694.00
2023-04-25T14:25:26.895Z,96701.00
2023-04-25T14:27:54.331Z,96709.00
2023-04-25T14:30:22.073Z,96712.00
2023-04-25T14:32:52.432Z,96700.00
2023-04-25T14:35:20.106Z,96708.00
2023-04-25T14:37:47.385Z,96704.00
2023-04-25T14:40:16.360Z,96711.00
2023-04-25T14:42:43.686Z,96706.00
2023-04-25T14:45:11.302Z,96716.00
2023-04-25T14:47:38.862Z,96708.00
2023-04-25T14:50:07.359Z,96711.00
2023-04-25T14:52:34.570Z,96708.00
2023-04-25T14:55:05.788Z,96710.00
2023-04-25T14:57:33.436Z,96705.00
2023-04-25T15:00:00.815Z,96700.00
2023-04-25T15:02:28.660Z,96703.00
2023-04-25T15:04:57.004Z,96701.00
2023-04-25T15:07:24.831Z,96706.00
2023-04-25T15:09:54.220Z,96697.00
2023-04-25T15:12:21.498Z,96703.00
2023-04-25T15:14:48.693Z,96694.00
2023-04-25T15:17:16.103Z,96692.00
2023-04-25T15:19:43.309Z,96698.00
2023-04-25T15:22:10.537Z,96702.00
2023-04-25T15:24:37.731Z,96699.00
2023-04-25T15:27:05.503Z,96695.00
2023-04-25T15:29:32.705Z,96710.00
2023-04-25T15:32:00.027Z,96703.00
2023-04-25T15:34:27.361Z,96698.00
2023-04-25T15:36:54.565Z,96704.00
2023-04-25T15:39:21.845Z,96701.00
2023-04-25T15:41:49.038Z,96691.00
2023-04-25T15:44:16.375Z,96696.00
2023-04-25T15:46:45.730Z,96711.00
2023-04-25T15:49:13.137Z,96701.00
2023-04-25T15:51:40.550Z,96702.00
2023-04-25T15:54:08.164Z,96710.00
2023-04-25T15:56:35.391Z,96714.00
2023-04-25T15:59:02.674Z,96710.00
2023-04-25T16:01:31.117Z,96714.00
2023-04-25T16:03:59.214Z,96707.00
2023-04-25T16:06:27.401Z,96717.00
2023-04-25T16:08:55.119Z,96712.00
2023-04-25T16:11:22.704Z,96714.00
2023-04-25T16:13:50.398Z,96717.00
2023-04-25T16:16:17.930Z,96719.00
2023-04-25T16:18:45.283Z,96721.00
2023-04-25T16:21:17.033Z,96728.00
2023-04-25T16:23:44.530Z,96731.00
2023-04-25T16:26:11.753Z,96734.00
2023-04-25T16:28:38.967Z,96736.00
2023-04-25T16:31:07.041Z,96734.00
2023-04-25T16:33:35.366Z,96740.00
2023-04-25T16:36:02.555Z,96741.00
2023-04-25T16:38:29.843Z,96733.00
2023-04-25T16:40:57.078Z,96729.00
2023-04-25T16:43:24.352Z,96736.00
2023-04-25T16:45:51.585Z,96744.00
2023-04-25T16:48:20.850Z,96744.00
2023-04-25T16:50:48.066Z,96742.00
2023-04-25T16:53:15.389Z,96744.00
2023-04-25T16:55:42.599Z,96742.00
2023-04-25T16:58:11.940Z,96746.00
2023-04-25T17:00:39.954Z,96749.00
2023-04-25T17:03:07.776Z,96747.00
2023-04-25T17:05:36.372Z,96752.00
2023-04-25T17:08:03.741Z,96754.00
2023-04-25T17:10:31.117Z,96751.00
2023-04-25T17:12:58.305Z,96748.00
2023-04-25T17:15:25.553Z,96758.00
2023-04-25T17:17:52.961Z,96766.00
2023-04-25T17:20:20.374Z,96766.00
2023-04-25T17:22:47.635Z,96768.00
2023-04-25T17:25:14.912Z,96760.00
2023-04-25T17:27:42.085Z,96767.00
2023-04-25T17:30:09.865Z,96768.00
2023-04-25T17:32:37.236Z,96773.00
2023-04-25T17:35:05.416Z,96782.00
2023-04-25T17:37:32.823Z,96783.00
2023-04-25T17:39:59.986Z,96790.00
2023-04-25T17:42:28.040Z,96797.00
2023-04-25T17:44:55.618Z,96798.00
2023-04-25T17:47:23.860Z,96800.00
2023-04-25T17:49:51.425Z,96799.00
2023-04-25T17:52:18.650Z,96792.00
2023-04-25T17:54:46.630Z,96796.00
2023-04-25T17:57:15.202Z,96790.00
2023-04-25T17:59:42.547Z,96794.00
2023-04-25T18:02:10.845Z,96794.00
2023-04-25T18:04:38.412Z,96789.00
2023-04-25T18:07:05.923Z,96797.00
2023-04-25T18:09:34.240Z,96802.00
2023-04-25T18:12:02.071Z,96807.00
2023-04-25T18:14:29.275Z,96805.00
2023-04-25T18:16:56.460Z,96808.00
2023-04-25T18:19:23.956Z,96812.00
2023-04-25T18:21:54.444Z,96811.00
2023-04-25T18:24:22.898Z,96820.00
2023-04-25T18:26:50.389Z,96818.00
2023-04-25T18:29:31.408Z,96815.00
2023-04-25T18:32:00.192Z,96817.00
2023-04-25T18:34:27.770Z,96817.00
2023-04-25T18:36:56.443Z,96827.00
2023-04-25T18:39:24.464Z,96824.00
2023-04-25T18:41:58.788Z,96832.00
2023-04-25T18:44:27.983Z,96835.00
2023-04-25T18:46:55.274Z,96840.00
2023-04-25T18:49:22.536Z,96847.00
2023-04-25T18:51:49.829Z,96842.00
2023-04-25T18:54:17.015Z,96845.00
2023-04-25T18:56:44.226Z,96861.00
2023-04-25T18:59:12.011Z,96859.00
2023-04-25T19:01:39.238Z,96860.00
2023-04-25T19:04:07.003Z,96861.00
2023-04-25T19:06:34.480Z,96846.00
2023-04-25T19:09:02.380Z,96864.00
2023-04-25T19:11:29.833Z,96869.00
2023-04-25T19:13:57.112Z,96871.00
2023-04-25T19:16:26.296Z,96870.00
2023-04-25T19:18:56.014Z,96873.00
2023-04-25T19:21:23.633Z,96884.00
2023-04-25T19:23:54.246Z,96881.00
2023-04-25T19:26:22.368Z,96887.00
2023-04-25T19:29:10.578Z,96898.00
2023-04-25T19:31:38.917Z,96892.00
2023-04-25T19:34:07.527Z,96888.00
2023-04-25T19:36:38.969Z,96887.00
2023-04-25T19:39:07.422Z,96885.00
2023-04-25T19:41:39.017Z,96889.00
2023-04-25T19:44:08.330Z,96906.00
2023-04-25T19:46:36.762Z,96897.00
2023-04-25T19:49:07.212Z,96901.00
2023-04-25T19:51:35.750Z,96902.00
2023-04-25T19:54:03.467Z,96897.00
2023-04-25T19:56:31.060Z,96893.00
2023-04-25T19:58:58.406Z,96891.00
2023-04-25T20:01:26.285Z,96891.00
2023-04-25T20:03:53.874Z,96889.00
2023-04-25T20:06:21.611Z,96900.00
2023-04-25T20:08:50.506Z,96898.00
2023-04-25T20:11:17.747Z,96897.00
2023-04-25T20:13:45.072Z,96896.00
2023-04-25T20:16:12.426Z,96905.00
2023-04-25T20:18:41.501Z,96907.00
2023-04-25T20:21:08.790Z,96905.00
2023-04-25T20:23:36.002Z,96906.00
2023-04-25T20:26:04.757Z,96916.00
2023-04-25T20:28:32.374Z,96914.00
2023-04-25T20:31:00.444Z,96914.00
2023-04-25T20:33:27.923Z,96915.00
2023-04-25T20:35:55.123Z,96911.00
2023-04-25T20:38:22.396Z,96907.00
2023-04-25T20:40:50.874Z,96913.00
2023-04-25T20:43:18.067Z,96911.00
2023-04-25T20:45:45.328Z,96918.00
2023-04-25T20:48:12.533Z,96921.00
2023-04-25T20:50:39.740Z,96920.00
2023-04-25T20:53:07.026Z,96918.00
2023-04-25T20:55:34.208Z,96906.00
2023-04-25T20:58:01.405Z,96911.00
2023-04-25T21:00:29.312Z,96917.00
2023-04-25T21:02:57.674Z,96913.00
2023-04-25T21:05:25.098Z,96919.00
2023-04-25T21:07:52.479Z,96914.00
2023-04-25T21:10:20.200Z,96920.00
2023-04-25T21:12:49.321Z,96924.00
2023-04-25T21:15:19.374Z,96920.00
2023-04-25T21:17:47.628Z,96917.00
2023-04-25T21:20:17.787Z,96925.00
2023-04-25T21:22:50.444Z,96930.00
2023-04-25T21:25:20.829Z,96928.00
2023-04-25T21:27:49.602Z,96933.00
2023-04-25T21:30:19.080Z,96941.00
2023-04-25T21:32:47.839Z,96938.00
2023-04-25T21:35:15.633Z,96934.00
2023-04-25T21:37:42.992Z,96935.00
2023-04-25T21:40:10.798Z,96932.00
2023-04-25T21:42:38.254Z,96942.00
2023-04-25T21:45:09.990Z,96939.00
2023-04-25T21:47:37.261Z,96935.00
2023-04-25T21:50:04.779Z,96943.00
2023-04-25T21:52:32.043Z,96942.00
2023-04-25T21:54:59.227Z,96946.00
2023-04-25T21:57:26.436Z,96946.00
2023-04-25T21:59:53.628Z,96949.00
2023-04-25T22:02:20.998Z,96946.00
2023-04-25T22:04:48.751Z,96940.00
2023-04-25T22:07:16.126Z,96951.00
2023-04-25T22:09:53.897Z,96950.00
2023-04-25T22:12:23.382Z,96948.00
2023-04-25T22:14:51.107Z,96956.00
2023-04-25T22:17:19.304Z,96953.00
2023-04-25T22:19:47.060Z,96953.00
2023-04-25T22:22:14.307Z,96960.00
2023-04-25T22:24:42.119Z,96951.00
2023-04-25T22:27:12.767Z,96951.00
2023-04-25T22:29:40.307Z,96961.00
2023-04-25T22:32:07.611Z,96952.00
2023-04-25T22:34:34.805Z,96954.00
2023-04-25T22:37:02.062Z,96960.00
2023-04-25T22:39:29.629Z,96958.00
2023-04-25T22:41:57.057Z,96961.00
2023-04-25T22:44:24.300Z,96955.00
2023-04-25T22:46:51.494Z,96950.00
2023-04-25T22:49:18.889Z,96950.00
2023-04-25T22:51:46.086Z,96962.00
2023-04-25T22:54:13.267Z,96951.00
2023-04-25T22:56:40.466Z,96958.00
2023-04-25T22:59:11.444Z,96963.00
2023-04-25T23:01:38.659Z,96964.00
2023-04-25T23:04:07.797Z,96957.00
2023-04-25T23:06:35.494Z,96968.00
2023-04-25T23:09:02.675Z,96967.00
2023-04-25T23:11:30.204Z,96962.00
2023-04-25T23:13:58.731Z,96969.00
2023-04-25T23:16:26.429Z,96971.00
2023-04-25T23:18:53.809Z,96963.00
2023-04-25T23:21:21.612Z,96958.00
2023-04-25T23:23:48.868Z,96956.00
2023-04-25T23:26:16.035Z,96966.00
2023-04-25T23:28:43.240Z,96968.00
2023-04-25T23:31:12.088Z,96967.00
2023-04-25T23:33:39.512Z,96970.00
2023-04-25T23:36:07.597Z,96970.00
2023-04-25T23:38:34.779Z,96970.00
2023-04-25T23:41:02.158Z,96974.00
2023-04-25T23:43:29.316Z,96972.00
2023-04-25T23:45:56.591Z,96973.00
2023-04-25T23:48:23.859Z,96972.00
2023-04-25T23:50:51.739Z,96968.00
2023-04-25T23:53:19.025Z,96969.00
2023-04-25T23:55:46.307Z,96976.00
2023-04-25T23:58:13.551Z,96979.00
